Time;durP1;ratioP1;P1;durP2;ratioP2;P2;SDS_P1;SDS_P2;PMS_P1;PMS_P2;Temp;Humidity;BMP_temperature;BMP_pressure;BME280_temperature;BME280_humidity;BME280_pressure;Samples;Min_cycle;Max_cycle;Signal;HPM_P1;HPM_P2
2022/07/12 00:03:32;;;;;;;16.42;12.90;;;16.30;99.90;;;;;;6751058;88;20226;-84
2022/07/12 00:13:53;;;;;;;16.52;13.27;;;16.10;99.90;;;;;;6724601;77;20242;-81
2022/07/12 00:23:53;;;;;;;20.75;13.40;;;16.10;99.90;;;;;;6750227;88;20179;-82
2022/07/12 00:33:54;;;;;;;17.40;13.15;;;15.90;99.90;;;;;;6749769;88;20157;-80
2022/07/12 00:43:54;;;;;;;17.23;13.27;;;15.90;99.90;;;;;;6748719;88;20164;-81
2022/07/12 00:53:58;;;;;;;15.88;13.00;;;15.70;99.90;;;;;;6749003;88;20244;-81
2022/07/12 01:04:01;;;;;;;16.73;12.73;;;15.50;99.90;;;;;;6751745;88;20789;-80
2022/07/12 01:14:01;;;;;;;16.48;12.65;;;15.40;99.90;;;;;;6752074;88;20320;-81
2022/07/12 01:24:04;;;;;;;17.70;12.88;;;15.20;99.90;;;;;;6751950;88;20988;-84
2022/07/12 01:34:04;;;;;;;18.08;12.77;;;15.00;99.90;;;;;;6746309;88;20247;-81
2022/07/12 01:44:06;;;;;;;17.40;12.27;;;14.80;99.90;;;;;;6751547;88;20995;-81
2022/07/12 01:54:06;;;;;;;14.95;11.43;;;14.80;99.90;;;;;;6734224;88;20169;-81
2022/07/12 02:04:07;;;;;;;14.43;11.57;;;14.60;99.90;;;;;;6733952;88;20200;-81
2022/07/12 02:14:09;;;;;;;17.37;12.13;;;14.90;99.90;;;;;;6733914;88;20158;-81
2022/07/12 02:24:09;;;;;;;15.85;11.43;;;14.90;99.90;;;;;;6730079;88;20225;-82
2022/07/12 02:34:10;;;;;;;17.48;12.25;;;14.70;99.90;;;;;;6732332;88;20963;-82
2022/07/12 02:44:10;;;;;;;16.67;11.77;;;14.60;99.90;;;;;;6733831;88;20161;-82
2022/07/12 02:54:11;;;;;;;17.60;11.38;;;14.40;99.90;;;;;;6744075;88;20259;-81
2022/07/12 03:04:11;;;;;;;15.43;11.77;;;14.30;99.90;;;;;;6750363;88;20259;-82
2022/07/12 03:14:12;;;;;;;16.35;11.40;;;14.30;99.90;;;;;;6745925;88;20190;-81
2022/07/12 03:24:12;;;;;;;17.58;12.23;;;14.50;99.90;;;;;;6745236;88;20773;-81
2022/07/12 03:34:13;;;;;;;15.93;11.75;;;14.40;99.90;;;;;;6749974;88;20743;-81
2022/07/12 03:44:13;;;;;;;16.30;11.98;;;14.40;99.90;;;;;;6749965;88;20204;-81
2022/07/12 03:54:14;;;;;;;19.10;12.50;;;14.20;99.90;;;;;;6744667;88;20257;-81
2022/07/12 04:04:15;;;;;;;16.17;11.73;;;13.90;99.90;;;;;;6750129;88;20213;-80
2022/07/12 04:14:15;;;;;;;17.85;12.73;;;13.90;99.90;;;;;;6749634;88;20174;-81
2022/07/12 04:24:16;;;;;;;19.83;12.10;;;13.90;99.90;;;;;;6744750;88;20279;-82
2022/07/12 04:34:17;;;;;;;20.73;12.98;;;14.10;99.90;;;;;;6742661;88;21125;-81
2022/07/12 04:44:17;;;;;;;17.37;12.57;;;14.10;99.90;;;;;;6752158;88;20202;-82
2022/07/12 04:54:18;;;;;;;18.35;12.98;;;14.30;99.90;;;;;;6768940;88;20180;-82
2022/07/12 05:04:18;;;;;;;19.25;13.10;;;14.30;99.90;;;;;;6769440;88;20199;-82
2022/07/12 05:14:19;;;;;;;18.75;13.05;;;14.40;99.90;;;;;;6769058;88;20756;-82
2022/07/12 05:24:19;;;;;;;19.80;13.13;;;14.50;99.90;;;;;;6762129;88;20200;-81
2022/07/12 05:34:20;;;;;;;21.80;13.73;;;15.00;99.90;;;;;;6751647;88;20233;-80
2022/07/12 05:44:20;;;;;;;19.85;14.32;;;15.00;99.90;;;;;;6743021;88;20933;-80
2022/07/12 05:54:21;;;;;;;20.27;14.35;;;15.30;99.90;;;;;;6723892;88;20256;-81
2022/07/12 06:04:21;;;;;;;21.42;15.25;;;15.60;99.90;;;;;;6724237;88;20210;-80
2022/07/12 06:14:22;;;;;;;23.70;14.95;;;16.10;99.90;;;;;;6749176;88;20183;-82
2022/07/12 06:24:22;;;;;;;22.02;15.30;;;16.60;99.90;;;;;;6731476;88;20852;-83
2022/07/12 06:34:23;;;;;;;25.05;14.38;;;17.30;99.90;;;;;;6728855;88;20326;-82
2022/07/12 06:44:24;;;;;;;19.17;13.25;;;17.80;99.90;;;;;;6733580;88;20166;-82
2022/07/12 06:54:25;;;;;;;21.77;13.93;;;18.50;99.90;;;;;;6714050;88;20158;-82
2022/07/12 07:04:25;;;;;;;17.40;13.23;;;18.90;99.90;;;;;;6714399;88;21028;-81
2022/07/12 07:14:27;;;;;;;16.48;11.38;;;19.20;99.90;;;;;;6714367;88;20230;-81
2022/07/12 07:24:27;;;;;;;14.27;10.85;;;20.50;99.90;;;;;;6729308;88;20899;-80
2022/07/12 07:34:28;;;;;;;13.80;10.35;;;20.70;99.90;;;;;;6733349;88;20247;-81
2022/07/12 07:44:28;;;;;;;11.40;8.93;;;21.40;99.90;;;;;;6733455;88;20645;-80
2022/07/12 07:54:29;;;;;;;9.93;7.25;;;22.60;99.90;;;;;;6732952;88;20161;-81
2022/07/12 08:04:29;;;;;;;6.80;5.55;;;22.90;99.90;;;;;;6732479;88;20190;-82
2022/07/12 08:14:30;;;;;;;7.35;5.45;;;23.50;99.90;;;;;;6728407;88;20182;-79
2022/07/12 08:24:30;;;;;;;8.25;5.00;;;24.00;99.90;;;;;;6732541;88;20186;-81
2022/07/12 08:34:31;;;;;;;5.85;4.10;;;23.70;99.90;;;;;;6732228;88;20181;-82
2022/07/12 08:44:31;;;;;;;6.37;3.87;;;24.60;99.90;;;;;;6731773;88;20264;-80
2022/07/12 08:54:39;;;;;;;4.00;3.28;;;24.90;99.90;;;;;;6740595;88;20355;-81
2022/07/12 09:04:39;;;;;;;4.68;3.33;;;25.90;99.90;;;;;;6747200;88;20243;-82
2022/07/12 09:14:40;;;;;;;3.25;2.30;;;26.80;99.90;;;;;;6728141;88;20202;-82
2022/07/12 09:24:41;;;;;;;3.67;2.10;;;26.70;99.00;;;;;;6734653;88;20179;-81
2022/07/12 09:45:00;;;;;;;2.33;1.65;;;28.50;93.90;;;;;;6734634;88;20186;-80
2022/07/12 09:55:03;;;;;;;6.03;1.60;;;29.60;91.50;;;;;;6734299;88;20350;-81
2022/07/12 10:05:07;;;;;;;2.55;1.45;;;30.10;90.10;;;;;;6734547;88;20397;-82
2022/07/12 10:15:17;;;;;;;2.12;1.45;;;28.40;87.60;;;;;;6734626;88;20280;-82
2022/07/12 10:25:29;;;;;;;3.87;2.20;;;30.50;87.30;;;;;;6734346;88;20150;-82
2022/07/12 10:35:31;;;;;;;2.15;1.80;;;31.40;84.90;;;;;;6734015;88;20187;-81
2022/07/12 10:45:33;;;;;;;2.30;1.87;;;29.90;85.10;;;;;;6730219;88;20165;-81
2022/07/12 10:55:34;;;;;;;2.55;2.08;;;30.10;84.90;;;;;;6751033;88;20174;-81
2022/07/12 11:05:34;;;;;;;3.15;2.33;;;31.40;84.20;;;;;;6750847;88;20257;-81
2022/07/12 11:15:35;;;;;;;3.83;1.70;;;32.70;79.30;;;;;;6750865;88;20154;-81
2022/07/12 11:25:35;;;;;;;3.80;1.70;;;33.30;78.90;;;;;;6750084;88;20188;-81
2022/07/12 11:35:36;;;;;;;3.35;2.08;;;33.70;76.10;;;;;;6747040;88;20146;-81
2022/07/12 11:45:37;;;;;;;1.90;1.40;;;34.30;73.70;;;;;;6750260;88;20189;-82
2022/07/12 11:55:42;;;;;;;4.35;1.70;;;34.20;72.60;;;;;;6750335;88;20176;-81
2022/07/12 12:05:46;;;;;;;1.77;1.42;;;34.70;70.80;;;;;;6746365;88;20186;-83
2022/07/12 12:15:52;;;;;;;2.62;1.50;;;34.00;67.70;;;;;;6744614;88;20223;-84
2022/07/12 12:26:10;;;;;;;2.22;1.40;;;33.00;69.30;;;;;;6732529;88;20360;-83
2022/07/12 12:36:25;;;;;;;3.70;1.40;;;34.70;67.70;;;;;;6728925;88;20325;-86
2022/07/12 12:46:55;;;;;;;1.33;1.20;;;35.40;67.20;;;;;;6732896;88;20162;-84
2022/07/12 12:56:56;;;;;;;1.10;1.00;;;35.30;66.50;;;;;;6734362;88;20200;-84
2022/07/12 13:06:57;;;;;;;3.25;1.52;;;34.60;65.70;;;;;;6734888;88;20182;-86
2022/07/12 13:16:58;;;;;;;2.03;1.30;;;35.00;64.50;;;;;;6735045;88;20241;-85
2022/07/12 13:26:58;;;;;;;2.20;1.20;;;36.20;63.40;;;;;;6730210;88;20361;-85
2022/07/12 13:36:59;;;;;;;1.45;1.15;;;36.00;62.90;;;;;;6734321;88;20212;-84
2022/07/12 13:47:00;;;;;;;1.70;1.27;;;36.20;62.10;;;;;;6734147;88;20173;-85
2022/07/12 13:57:00;;;;;;;1.50;1.10;;;36.40;61.00;;;;;;6734087;88;20206;-86
2022/07/12 14:07:01;;;;;;;2.08;1.42;;;36.10;61.10;;;;;;6734292;88;20322;-85
2022/07/12 14:17:02;;;;;;;1.63;1.23;;;35.50;58.70;;;;;;6733374;88;20957;-84
2022/07/12 14:27:03;;;;;;;2.87;1.20;;;35.20;59.60;;;;;;6730061;88;20467;-84
2022/07/12 14:37:04;;;;;;;1.52;1.10;;;35.10;58.00;;;;;;6734293;88;20170;-84
2022/07/12 14:47:05;;;;;;;1.60;1.20;;;34.40;56.80;;;;;;6733283;88;20195;-84
2022/07/12 14:57:05;;;;;;;1.95;1.02;;;34.00;57.90;;;;;;6732794;88;20178;-83
2022/07/12 15:07:07;;;;;;;1.80;1.10;;;34.20;58.60;;;;;;6733534;88;20166;-85
2022/07/12 15:17:08;;;;;;;2.95;1.33;;;34.20;58.30;;;;;;6728727;88;20200;-83
2022/07/12 15:37:47;;;;;;;4.35;1.37;;;34.00;58.80;;;;;;6707819;88;20227;-83
2022/07/12 15:47:48;;;;;;;2.72;1.30;;;33.60;58.50;;;;;;6731029;88;20170;-84
2022/07/12 15:57:49;;;;;;;2.60;1.20;;;33.50;58.70;;;;;;6724329;88;20225;-79
2022/07/12 16:07:51;;;;;;;1.98;1.27;;;33.80;59.30;;;;;;6716925;88;20724;-81
2022/07/12 16:17:52;;;;;;;1.90;1.27;;;33.90;57.90;;;;;;6719744;88;20287;-81
2022/07/12 16:27:55;;;;;;;3.27;1.20;;;33.40;58.20;;;;;;6720922;88;20185;-82
2022/07/12 16:37:56;;;;;;;3.20;2.17;;;32.60;58.00;;;;;;6726627;88;20286;-82
2022/07/12 16:48:03;;;;;;;2.00;1.30;;;32.30;58.10;;;;;;6721653;88;20319;-81
2022/07/12 16:58:04;;;;;;;3.17;1.25;;;32.30;59.00;;;;;;6722275;88;20331;-80
2022/07/12 17:08:05;;;;;;;3.67;1.53;;;32.10;59.10;;;;;;6729352;88;20194;-82
2022/07/12 17:18:06;;;;;;;2.33;1.43;;;31.40;59.30;;;;;;6724645;88;20324;-84
2022/07/12 17:28:06;;;;;;;2.83;1.70;;;30.70;60.80;;;;;;6746163;88;20493;-82
2022/07/12 17:38:08;;;;;;;4.30;1.60;;;30.20;61.20;;;;;;6744049;88;20208;-79
2022/07/12 17:48:08;;;;;;;5.77;1.70;;;30.10;61.70;;;;;;6723381;88;20219;-79
2022/07/12 18:08:28;;;;;;;3.30;1.50;;;29.20;64.60;;;;;;6729435;88;20186;-84
2022/07/12 18:18:29;;;;;;;2.37;1.60;;;28.30;80.50;;;;;;6732924;88;20300;-86
2022/07/12 18:28:29;;;;;;;5.47;2.40;;;27.30;75.70;;;;;;6711597;88;20315;-80
2022/07/12 18:38:30;;;;;;;6.00;3.20;;;26.60;77.90;;;;;;6706042;88;20269;-82
2022/07/12 18:48:32;;;;;;;3.50;1.65;;;26.20;73.20;;;;;;6718141;88;20676;-81
2022/07/12 18:58:32;;;;;;;5.40;2.00;;;26.40;74.50;;;;;;6716881;88;20243;-81
2022/07/12 19:08:33;;;;;;;5.28;2.20;;;26.00;78.30;;;;;;6732789;88;20305;-81
2022/07/12 19:18:35;;;;;;;4.18;2.00;;;26.00;77.10;;;;;;6731038;88;20224;-82
2022/07/12 19:28:35;;;;;;;4.37;1.77;;;25.40;77.90;;;;;;6736718;88;20194;-81
2022/07/12 19:38:36;;;;;;;4.05;2.60;;;25.30;78.50;;;;;;6740090;88;20190;-80
2022/07/12 19:48:37;;;;;;;3.67;2.55;;;25.00;79.80;;;;;;6738269;88;20700;-80
2022/07/12 19:58:37;;;;;;;5.62;2.30;;;25.20;78.70;;;;;;6739829;88;20221;-80
2022/07/12 20:08:38;;;;;;;4.60;1.90;;;25.20;80.60;;;;;;6744491;88;20220;-80
2022/07/12 20:18:38;;;;;;;3.20;2.12;;;25.20;82.30;;;;;;6741766;88;20232;-81
2022/07/12 20:28:39;;;;;;;2.83;1.80;;;24.50;85.90;;;;;;6732568;88;20178;-79
2022/07/12 20:38:40;;;;;;;5.22;2.30;;;24.40;87.90;;;;;;6726138;88;20165;-79
2022/07/12 20:48:40;;;;;;;14.18;8.90;;;24.20;90.90;;;;;;6727887;88;20198;-78
2022/07/12 20:58:41;;;;;;;5.07;2.95;;;24.30;92.10;;;;;;6722002;88;20188;-78
2022/07/12 21:08:42;;;;;;;4.47;2.03;;;24.00;93.60;;;;;;6722711;88;20323;-78
2022/07/12 21:18:43;;;;;;;3.78;1.87;;;23.70;95.20;;;;;;6708594;88;20304;-79
2022/07/12 21:28:44;;;;;;;5.47;2.50;;;23.30;97.50;;;;;;6708172;88;20194;-79
2022/07/12 21:38:44;;;;;;;5.23;2.20;;;23.20;99.50;;;;;;6721471;88;20207;-79
2022/07/12 21:48:45;;;;;;;3.53;1.87;;;23.10;99.90;;;;;;6708847;88;20211;-79
2022/07/12 21:58:46;;;;;;;6.95;3.15;;;22.90;99.90;;;;;;6707978;88;20244;-79
2022/07/12 22:08:47;;;;;;;6.20;2.10;;;23.30;99.90;;;;;;6703611;88;20218;-79
2022/07/12 22:18:47;;;;;;;2.80;1.77;;;22.80;99.90;;;;;;6702451;88;20954;-79
2022/07/12 22:28:48;;;;;;;3.55;2.05;;;22.60;99.90;;;;;;6706619;88;20197;-78
2022/07/12 22:38:48;;;;;;;5.25;2.05;;;22.50;99.90;;;;;;6723845;88;20233;-79
2022/07/12 22:48:49;;;;;;;4.18;1.70;;;22.20;99.90;;;;;;6724938;88;20237;-79
2022/07/12 22:58:49;;;;;;;4.90;1.73;;;22.20;99.90;;;;;;6725064;88;20186;-78
2022/07/12 23:08:50;;;;;;;2.67;1.80;;;22.10;99.90;;;;;;6725394;88;20246;-80
2022/07/12 23:18:50;;;;;;;2.85;1.77;;;22.00;99.90;;;;;;6728934;88;20197;-79
2022/07/12 23:28:51;;;;;;;2.78;1.85;;;21.90;99.90;;;;;;6724616;88;20204;-79
2022/07/12 23:38:51;;;;;;;3.05;1.92;;;21.70;99.90;;;;;;6723006;88;20232;-79
2022/07/12 23:48:52;;;;;;;3.55;1.90;;;22.10;99.90;;;;;;6724460;88;20279;-78
2022/07/12 23:58:52;;;;;;;3.90;1.73;;;22.00;99.90;;;;;;6720402;88;20255;-78
